Time;durP1;ratioP1;P1;durP2;ratioP2;P2;SDS_P1;SDS_P2;PMS_P1;PMS_P2;Temp;Humidity;BMP_temperature;BMP_pressure;BME280_temperature;BME280_humidity;BME280_pressure;Samples;Min_cycle;Max_cycle;Signal;HPM_P1;HPM_P2
2022/01/03 00:01:26;;;;;;;35.92;4.55;;;;;;;9.87;100.00;100915.59;5075071;28;20408;-52
2022/01/03 00:03:56;;;;;;;35.55;4.32;;;;;;;9.87;100.00;100923.56;5073977;28;20106;-52
2022/01/03 00:06:25;;;;;;;28.25;4.53;;;;;;;9.87;100.00;100910.31;5074923;28;20061;-51
2022/01/03 00:08:54;;;;;;;38.78;4.65;;;;;;;9.83;100.00;100908.75;5074394;28;20064;-51
2022/01/03 00:11:22;;;;;;;27.92;3.58;;;;;;;9.85;100.00;100906.84;5074038;28;20059;-50
2022/01/03 00:13:52;;;;;;;34.35;3.80;;;;;;;9.79;100.00;100899.25;5074764;28;20056;-50
2022/01/03 00:16:23;;;;;;;24.50;3.67;;;;;;;9.83;100.00;100890.19;5074556;28;20072;-52
2022/01/03 00:18:52;;;;;;;30.10;4.32;;;;;;;9.85;100.00;100896.25;5073709;28;20516;-52
2022/01/03 00:21:23;;;;;;;38.00;5.20;;;;;;;9.91;100.00;100901.25;5074374;28;20052;-50
2022/01/03 00:23:54;;;;;;;28.55;3.47;;;;;;;9.81;100.00;100894.72;5074994;28;20139;-51
2022/01/03 00:26:26;;;;;;;36.08;4.00;;;;;;;9.86;100.00;100893.53;5074555;28;20052;-50
2022/01/03 00:28:58;;;;;;;37.13;3.53;;;;;;;9.80;100.00;100896.53;5073657;28;20060;-52
2022/01/03 00:31:33;;;;;;;28.85;4.07;;;;;;;9.86;100.00;100893.53;5073864;28;20071;-49
2022/01/03 00:34:04;;;;;;;28.23;3.75;;;;;;;9.83;100.00;100893.72;5073784;28;20131;-50
2022/01/03 00:36:33;;;;;;;34.00;4.97;;;;;;;9.84;100.00;100902.50;5074413;28;20067;-49
2022/01/03 00:39:04;;;;;;;28.70;4.05;;;;;;;9.79;100.00;100896.59;5074084;28;20052;-49
2022/01/03 00:41:32;;;;;;;30.63;3.97;;;;;;;9.79;100.00;100912.50;5074389;28;20064;-50
2022/01/03 00:44:01;;;;;;;29.83;3.90;;;;;;;9.89;100.00;100903.13;5073724;28;20065;-51
2022/01/03 00:46:30;;;;;;;31.30;4.22;;;;;;;9.90;100.00;100903.97;5073686;28;20061;-52
2022/01/03 00:49:01;;;;;;;41.65;3.75;;;;;;;9.89;100.00;100903.13;5073979;28;20131;-50
2022/01/03 00:51:29;;;;;;;38.60;5.55;;;;;;;9.89;100.00;100903.13;5074729;28;20064;-50
2022/01/03 00:53:57;;;;;;;36.85;4.25;;;;;;;9.94;100.00;100906.38;5073306;28;20060;-50
2022/01/03 00:56:30;;;;;;;31.60;4.72;;;;;;;9.90;100.00;100902.19;5073932;28;20064;-49
2022/01/03 00:59:06;;;;;;;30.90;3.83;;;;;;;9.94;100.00;100901.09;5074406;28;20056;-50
2022/01/03 01:01:36;;;;;;;31.15;4.15;;;;;;;9.96;100.00;100888.59;5073609;28;20059;-50
2022/01/03 01:04:08;;;;;;;29.98;3.40;;;;;;;9.96;100.00;100893.06;5073521;28;20060;-52
2022/01/03 01:06:38;;;;;;;32.85;4.40;;;;;;;10.03;100.00;100892.63;5073891;28;20052;-50
2022/01/03 01:09:08;;;;;;;33.58;3.83;;;;;;;10.09;100.00;100894.09;5074159;28;20095;-52
2022/01/03 01:11:41;;;;;;;33.80;4.20;;;;;;;10.02;100.00;100890.94;5073207;28;20428;-51
2022/01/03 01:14:10;;;;;;;28.20;3.88;;;;;;;10.11;100.00;100884.28;5074291;28;20053;-50
2022/01/03 01:16:39;;;;;;;31.20;3.47;;;;;;;10.03;100.00;100879.38;5076705;28;20064;-50
2022/01/03 01:19:08;;;;;;;29.67;4.32;;;;;;;10.06;100.00;100881.00;5078150;28;20056;-50
2022/01/03 01:21:37;;;;;;;27.67;3.35;;;;;;;9.97;100.00;100879.72;5077270;28;20052;-50
2022/01/03 01:24:06;;;;;;;31.30;4.38;;;;;;;10.04;100.00;100878.44;5076965;28;20060;-50
2022/01/03 01:29:21;;;;;;;28.73;3.92;;;;;;;9.99;100.00;100877.84;5076619;28;20060;-50
2022/01/03 01:31:51;;;;;;;30.20;4.05;;;;;;;10.01;100.00;100881.25;5077046;28;20057;-50
2022/01/03 01:34:23;;;;;;;29.25;5.10;;;;;;;10.01;100.00;100875.09;5076452;28;20053;-51
2022/01/03 01:36:53;;;;;;;24.90;4.03;;;;;;;10.06;100.00;100878.38;5077597;28;20099;-52
2022/01/03 01:39:23;;;;;;;35.25;4.72;;;;;;;10.06;100.00;100848.38;5077072;28;20078;-51
2022/01/03 01:41:55;;;;;;;42.10;5.22;;;;;;;10.12;100.00;100866.56;5077378;28;20061;-52
2022/01/03 01:44:26;;;;;;;32.90;4.10;;;;;;;10.13;100.00;100858.53;5077103;28;20056;-49
2022/01/03 01:46:56;;;;;;;18.57;2.53;;;;;;;10.13;100.00;100861.19;5077702;28;20083;-52
2022/01/03 01:49:26;;;;;;;28.80;3.58;;;;;;;10.19;100.00;100860.84;5076162;28;20062;-52
2022/01/03 01:51:59;;;;;;;29.63;4.05;;;;;;;10.27;100.00;100856.91;5076108;28;20055;-52
2022/01/03 01:54:35;;;;;;;34.00;3.53;;;;;;;10.28;100.00;100850.69;5077028;28;20404;-51
2022/01/03 01:57:10;;;;;;;28.98;4.03;;;;;;;10.28;100.00;100840.09;5076099;28;20056;-50
2022/01/03 01:59:45;;;;;;;32.33;3.95;;;;;;;10.30;100.00;100833.72;5076877;28;20408;-52
2022/01/03 02:02:16;;;;;;;34.95;4.72;;;;;;;10.23;100.00;100832.38;5076215;28;20060;-51
2022/01/03 02:05:00;;;;;;;37.10;3.67;;;;;;;10.19;100.00;100831.69;5077008;28;20048;-52
2022/01/03 02:07:54;;;;;;;29.35;4.30;;;;;;;10.17;100.00;100843.31;5076441;28;20060;-49
2022/01/03 02:10:25;;;;;;;36.67;3.60;;;;;;;10.20;100.00;100859.06;5076103;28;20500;-50
2022/01/03 02:12:53;;;;;;;28.65;4.40;;;;;;;10.20;100.00;100851.09;5075774;28;20059;-50
2022/01/03 02:15:23;;;;;;;29.38;3.72;;;;;;;10.17;100.00;100860.09;5076519;28;20056;-52
2022/01/03 02:17:51;;;;;;;28.45;4.65;;;;;;;10.15;100.00;100847.84;5076152;28;20057;-52
2022/01/03 02:20:23;;;;;;;36.85;3.40;;;;;;;10.14;100.00;100860.25;5075891;28;20060;-51
2022/01/03 02:22:51;;;;;;;;;;;;;;;10.15;100.00;100847.84;5077199;28;20057;-51
2022/01/03 02:25:21;;;;;;;26.48;3.47;;;;;;;10.19;100.00;100833.50;5076628;28;19920;-52
2022/01/03 02:27:51;;;;;;;25.52;3.42;;;;;;;10.19;100.00;100842.28;5076366;28;20052;-52
2022/01/03 02:30:22;;;;;;;33.25;4.63;;;;;;;10.21;100.00;100847.53;5076324;28;20487;-52
2022/01/03 02:32:50;;;;;;;31.90;3.67;;;;;;;10.20;100.00;100845.78;5076087;28;20416;-51
2022/01/03 02:35:20;;;;;;;31.58;3.60;;;;;;;10.20;100.00;100848.44;5075566;28;20056;-51
2022/01/03 02:37:50;;;;;;;24.73;3.90;;;;;;;10.21;100.00;100850.16;5075826;28;20056;-50
2022/01/03 02:40:19;;;;;;;27.88;3.50;;;;;;;10.21;100.00;100839.56;5075496;28;20420;-53
2022/01/03 02:42:49;;;;;;;29.27;3.95;;;;;;;10.17;100.00;100838.00;5075714;28;20054;-51
2022/01/03 02:45:19;;;;;;;36.17;4.05;;;;;;;10.16;100.00;100836.31;5075258;28;20061;-49
2022/01/03 02:47:48;;;;;;;27.80;4.45;;;;;;;10.14;100.00;100824.94;5075968;28;20075;-51
2022/01/03 02:50:17;;;;;;;25.00;4.00;;;;;;;10.03;100.00;100826.38;5075310;28;20052;-51
2022/01/03 02:52:47;;;;;;;27.83;3.38;;;;;;;10.10;100.00;100824.22;5075513;28;20056;-50
2022/01/03 02:55:16;;;;;;;31.63;3.88;;;;;;;10.12;100.00;100827.69;5075664;28;20066;-50
2022/01/03 02:57:46;;;;;;;26.27;3.03;;;;;;;10.08;100.00;100817.31;5075440;28;20408;-49
2022/01/03 03:00:16;;;;;;;51.92;4.75;;;;;;;10.12;100.00;100818.84;5074853;28;20511;-50
2022/01/03 03:02:45;;;;;;;30.15;5.10;;;;;;;10.07;100.00;100815.59;5074749;28;20056;-52
2022/01/03 03:05:14;;;;;;;32.90;3.97;;;;;;;10.07;100.00;100811.19;5074694;28;20056;-50
2022/01/03 03:07:43;;;;;;;33.38;4.05;;;;;;;10.07;100.00;100810.28;5075192;28;20052;-50
2022/01/03 03:10:14;;;;;;;27.13;3.97;;;;;;;10.10;100.00;100820.75;5076054;28;20071;-49
2022/01/03 03:12:44;;;;;;;25.20;3.10;;;;;;;10.13;100.00;100823.22;5075513;28;20060;-52
2022/01/03 03:15:14;;;;;;;25.27;3.30;;;;;;;10.07;100.00;100827.09;5075215;28;20076;-50
2022/01/03 03:17:44;;;;;;;25.75;3.47;;;;;;;10.15;100.00;100834.59;5075324;28;20535;-50
2022/01/03 03:20:14;;;;;;;38.67;3.83;;;;;;;10.16;100.00;100812.47;5075880;28;20087;-52
2022/01/03 03:22:43;;;;;;;27.17;3.25;;;;;;;10.21;100.00;100813.06;5074940;28;20056;-50
2022/01/03 03:25:15;;;;;;;33.38;4.53;;;;;;;10.17;100.00;100811.50;5074667;28;20505;-51
2022/01/03 03:27:46;;;;;;;28.10;2.90;;;;;;;10.17;100.00;100800.91;5075344;28;20064;-52
2022/01/03 03:30:16;;;;;;;28.65;3.92;;;;;;;10.20;100.00;100798.06;5074316;28;20469;-50
2022/01/03 03:32:45;;;;;;;26.65;3.95;;;;;;;10.19;100.00;100791.94;5075704;28;20384;-51
2022/01/03 03:35:14;;;;;;;29.08;3.88;;;;;;;10.18;100.00;100802.63;5074391;28;20057;-50
2022/01/03 03:37:42;;;;;;;29.10;4.72;;;;;;;10.15;100.00;100785.06;5074906;28;20068;-51
2022/01/03 03:40:13;;;;;;;23.98;5.03;;;;;;;10.18;100.00;100792.84;5075263;28;20078;-51
2022/01/03 03:42:42;;;;;;;44.33;3.65;;;;;;;10.18;100.00;100784.06;5074939;28;20411;-52
2022/01/03 03:45:13;;;;;;;36.40;4.05;;;;;;;10.11;100.00;100783.53;5074798;28;20052;-52
2022/01/03 03:47:42;;;;;;;32.55;3.92;;;;;;;10.20;100.00;100779.53;5074969;28;20056;-50
2022/01/03 03:50:10;;;;;;;27.48;3.45;;;;;;;10.11;100.00;100770.28;5074604;28;20123;-50
2022/01/03 03:52:39;;;;;;;23.85;2.83;;;;;;;10.16;100.00;100778.00;5074561;28;20048;-52
2022/01/03 03:55:08;;;;;;;30.40;4.50;;;;;;;10.18;100.00;100781.41;5074013;28;20056;-50
2022/01/03 03:57:38;;;;;;;37.60;4.00;;;;;;;10.21;100.00;100771.47;5074792;28;20057;-50
2022/01/03 04:00:09;;;;;;;28.67;3.88;;;;;;;10.13;100.00;100770.22;5075299;28;20057;-51
2022/01/03 04:02:37;;;;;;;33.85;4.03;;;;;;;10.21;100.00;100763.53;5074763;28;20053;-49
2022/01/03 04:05:07;;;;;;;23.08;2.88;;;;;;;10.27;100.00;100759.69;5074622;28;20558;-52
2022/01/03 04:07:36;;;;;;;34.08;3.45;;;;;;;10.27;100.00;100775.59;5074881;28;20060;-49
2022/01/03 04:10:05;;;;;;;34.60;4.93;;;;;;;10.22;100.00;100761.72;5074363;28;20052;-52
2022/01/03 04:12:33;;;;;;;26.80;4.30;;;;;;;10.25;100.00;100750.94;5074324;28;20510;-50
2022/01/03 04:15:04;;;;;;;35.78;5.55;;;;;;;10.15;100.00;100745.31;5073755;28;20052;-51
2022/01/03 04:17:32;;;;;;;41.33;7.23;;;;;;;10.11;100.00;100749.09;5074842;28;20071;-51
2022/01/03 04:20:01;;;;;;;25.27;3.58;;;;;;;10.14;100.00;100751.56;5073993;28;20283;-50
2022/01/03 04:22:29;;;;;;;35.40;3.65;;;;;;;10.09;100.00;100750.13;5073960;28;20056;-51
2022/01/03 04:24:57;;;;;;;27.20;4.25;;;;;;;10.04;100.00;100745.94;5074541;28;20057;-52
2022/01/03 04:27:25;;;;;;;21.65;3.20;;;;;;;10.04;100.00;100753.88;5074705;28;20060;-52
2022/01/03 04:29:54;;;;;;;23.40;3.22;;;;;;;10.07;100.00;100736.09;5073846;28;20062;-53
2022/01/03 04:32:24;;;;;;;29.33;3.65;;;;;;;9.99;100.00;100729.44;5074102;28;20056;-51
2022/01/03 04:34:53;;;;;;;27.80;4.13;;;;;;;10.06;100.00;100734.41;5073620;28;20071;-49
2022/01/03 04:37:21;;;;;;;32.85;4.43;;;;;;;10.07;100.00;100725.47;5073697;28;20071;-52
2022/01/03 04:39:49;;;;;;;33.40;5.10;;;;;;;10.06;100.00;100719.34;5074121;28;20056;-52
2022/01/03 04:42:17;;;;;;;28.77;3.97;;;;;;;10.03;100.00;100715.06;5073749;28;20063;-51
2022/01/03 04:44:45;;;;;;;33.53;4.03;;;;;;;10.00;100.00;100714.38;5073785;28;20438;-50
2022/01/03 04:47:14;;;;;;;33.38;3.95;;;;;;;10.01;100.00;100711.63;5073655;28;20057;-50
2022/01/03 04:49:48;;;;;;;20.63;2.92;;;;;;;10.01;100.00;100721.41;5073670;28;20057;-49
2022/01/03 04:52:16;;;;;;;23.65;3.10;;;;;;;10.02;100.00;100725.78;5077512;28;20056;-51
2022/01/03 04:54:45;;;;;;;28.13;4.50;;;;;;;10.02;100.00;100712.53;5077263;28;20064;-51
2022/01/03 04:57:13;;;;;;;28.50;4.35;;;;;;;9.94;100.00;100705.00;5077694;28;20061;-52
2022/01/03 04:59:41;;;;;;;34.30;4.35;;;;;;;9.97;100.00;100699.53;5078029;28;20052;-52
2022/01/03 05:02:09;;;;;;;31.27;4.13;;;;;;;9.96;100.00;100708.41;5078167;28;20060;-52
2022/01/03 05:04:37;;;;;;;39.90;4.13;;;;;;;9.97;100.00;100704.81;5078200;28;20056;-52
2022/01/03 05:07:07;;;;;;;28.63;4.13;;;;;;;9.90;100.00;100703.47;5076990;28;20060;-52
2022/01/03 05:09:35;;;;;;;37.47;4.22;;;;;;;9.87;100.00;100698.34;5077840;28;20052;-52
2022/01/03 05:12:04;;;;;;;28.27;3.35;;;;;;;9.83;100.00;100687.06;5077476;28;20048;-51
2022/01/03 05:14:32;;;;;;;38.13;4.30;;;;;;;9.80;100.00;100681.91;5076859;28;20210;-50
2022/01/03 05:17:01;;;;;;;32.80;3.78;;;;;;;9.87;100.00;100693.03;5077297;28;20416;-51
2022/01/03 05:19:29;;;;;;;42.67;6.57;;;;;;;9.88;100.00;100684.13;5077360;28;20053;-52
2022/01/03 05:21:59;;;;;;;34.13;4.60;;;;;;;9.90;100.00;100682.25;5076977;28;20063;-52
2022/01/03 05:24:28;;;;;;;49.28;6.35;;;;;;;9.84;100.00;100674.66;5077583;28;20052;-52
2022/01/03 05:26:57;;;;;;;35.28;3.85;;;;;;;9.82;100.00;100671.25;5077782;28;20067;-49
2022/01/03 05:29:25;;;;;;;25.42;2.88;;;;;;;9.86;100.00;100668.31;5077179;28;20053;-51
2022/01/03 05:31:53;;;;;;;19.40;3.60;;;;;;;9.85;100.00;100671.03;5077501;28;20060;-52
2022/01/03 05:34:22;;;;;;;36.55;3.67;;;;;;;9.89;100.00;100666.44;5077416;28;20052;-49
2022/01/03 05:36:50;;;;;;;29.75;4.88;;;;;;;9.88;100.00;100652.31;5076947;28;20053;-50
2022/01/03 05:39:19;;;;;;;29.92;3.58;;;;;;;9.84;100.00;100645.50;5076646;28;20057;-50
2022/01/03 05:41:48;;;;;;;39.00;3.53;;;;;;;9.84;100.00;100650.81;5076635;28;20057;-51
2022/01/03 05:44:16;;;;;;;26.95;4.22;;;;;;;9.88;100.00;100649.69;5076634;28;20068;-52
2022/01/03 05:46:45;;;;;;;31.17;3.38;;;;;;;9.90;100.00;100653.13;5076541;28;20508;-50
2022/01/03 05:49:13;;;;;;;24.55;3.72;;;;;;;9.95;100.00;100653.72;5076463;28;20060;-53
2022/01/03 05:51:41;;;;;;;25.48;2.88;;;;;;;9.88;100.00;100641.72;5076464;28;20060;-51
2022/01/03 05:54:09;;;;;;;25.65;3.55;;;;;;;9.92;100.00;100647.69;5076161;28;20058;-51
2022/01/03 05:56:38;;;;;;;32.33;4.40;;;;;;;9.92;100.00;100650.34;5076553;28;20060;-50
2022/01/03 05:59:08;;;;;;;24.75;4.13;;;;;;;9.90;100.00;100639.88;5077138;28;20067;-50
2022/01/03 06:01:37;;;;;;;25.83;3.97;;;;;;;9.97;100.00;100641.22;5075680;28;20427;-50
2022/01/03 06:04:15;;;;;;;30.25;3.38;;;;;;;9.96;100.00;100634.19;5075919;28;20606;-50
2022/01/03 06:06:57;;;;;;;23.83;4.93;;;;;;;9.93;100.00;100631.72;5077292;28;20060;-49
2022/01/03 06:09:25;;;;;;;35.78;4.22;;;;;;;9.89;100.00;100632.84;5076171;28;20052;-52
2022/01/03 06:11:54;;;;;;;35.03;4.22;;;;;;;9.87;100.00;100634.75;5076343;28;20060;-49
2022/01/03 06:14:24;;;;;;;20.75;3.13;;;;;;;9.91;100.00;100627.47;5076939;28;20070;-51
2022/01/03 06:16:53;;;;;;;23.90;3.17;;;;;;;9.92;100.00;100637.97;5075841;28;20060;-51
2022/01/03 06:19:21;;;;;;;27.95;2.95;;;;;;;9.93;100.00;100628.22;5076122;28;20057;-51
2022/01/03 06:21:49;;;;;;;43.55;3.83;;;;;;;9.93;100.00;100622.94;5076083;28;20072;-51
2022/01/03 06:24:19;;;;;;;31.92;3.78;;;;;;;9.89;100.00;100618.75;5075507;28;20057;-50
2022/01/03 06:26:47;;;;;;;34.97;3.58;;;;;;;9.81;100.00;100614.72;5075988;28;20060;-49
2022/01/03 06:29:18;;;;;;;28.92;3.88;;;;;;;9.88;100.00;100617.88;5076311;28;20056;-50
2022/01/03 06:31:48;;;;;;;25.85;4.10;;;;;;;9.82;100.00;100618.25;5076297;28;20407;-52
2022/01/03 06:34:17;;;;;;;31.20;3.50;;;;;;;9.89;100.00;100606.34;5076200;28;20086;-50
2022/01/03 06:36:46;;;;;;;35.70;4.88;;;;;;;9.87;100.00;100613.53;5075763;28;20053;-51
2022/01/03 06:39:14;;;;;;;29.02;3.58;;;;;;;9.90;100.00;100602.78;5075398;28;20549;-50
2022/01/03 06:41:43;;;;;;;30.33;4.22;;;;;;;9.88;100.00;100603.78;5075778;28;20139;-51
2022/01/03 06:44:11;;;;;;;34.50;4.22;;;;;;;9.93;100.00;100607.88;5075075;28;20060;-52
2022/01/03 06:46:40;;;;;;;31.92;3.95;;;;;;;9.91;100.00;100588.56;5075307;28;20053;-49
2022/01/03 06:49:09;;;;;;;31.35;3.70;;;;;;;9.90;100.00;100588.66;5075518;28;20088;-50
2022/01/03 06:51:37;;;;;;;38.92;4.78;;;;;;;9.92;100.00;100592.94;5075374;28;20065;-50
2022/01/03 06:54:09;;;;;;;33.20;4.85;;;;;;;9.91;100.00;100577.97;5074862;28;20071;-51
2022/01/03 06:56:37;;;;;;;31.63;5.40;;;;;;;9.96;100.00;100570.59;5075752;28;20079;-51
2022/01/03 06:59:05;;;;;;;31.52;5.20;;;;;;;10.00;100.00;100574.78;5074999;28;20056;-50
2022/01/03 07:01:33;;;;;;;26.42;3.10;;;;;;;9.97;100.00;100577.63;5076153;28;20067;-50
2022/01/03 07:04:02;;;;;;;31.65;5.35;;;;;;;9.96;100.00;100575.06;5076228;28;20091;-51
2022/01/03 07:06:32;;;;;;;21.95;2.97;;;;;;;9.96;100.00;100570.59;5074978;28;20053;-51
2022/01/03 07:09:00;;;;;;;35.97;3.55;;;;;;;9.95;100.00;100568.91;5075203;28;20067;-50
2022/01/03 07:11:28;;;;;;;27.42;4.10;;;;;;;9.93;100.00;100575.22;5074909;28;20052;-49
2022/01/03 07:18:55;;;;;;;39.20;4.57;;;;;;;9.89;100.00;100563.97;5073765;28;20057;-51
2022/01/03 07:19:35;;;;;;;33.97;3.58;;;;;;;9.83;100.00;100564.31;5075333;28;20114;-51
2022/01/03 07:22:07;;;;;;;36.13;3.75;;;;;;;9.75;100.00;100535.63;5074875;28;20079;-51
2022/01/03 07:24:36;;;;;;;;;;;;;;;9.76;100.00;100541.78;5074796;28;20057;-51
2022/01/03 07:27:05;;;;;;;32.05;3.30;;;;;;;9.77;100.00;100528.44;5074555;28;20296;-51
2022/01/03 07:29:34;;;;;;;28.48;4.72;;;;;;;9.73;100.00;100521.59;5074501;28;20060;-49
2022/01/03 07:32:02;;;;;;;28.23;3.42;;;;;;;9.81;100.00;100523.81;5074443;28;20056;-52
2022/01/03 07:34:30;;;;;;;41.85;4.28;;;;;;;9.80;100.00;100527.38;5074481;28;20052;-51
2022/01/03 07:36:59;;;;;;;31.98;4.60;;;;;;;9.81;100.00;100523.81;5074775;28;20061;-51
2022/01/03 07:39:30;;;;;;;34.63;3.28;;;;;;;9.77;100.00;100523.16;5074635;28;20496;-51
2022/01/03 07:41:59;;;;;;;32.22;3.20;;;;;;;9.69;100.00;100532.47;5074119;28;20060;-49
2022/01/03 07:44:27;;;;;;;21.73;3.20;;;;;;;9.71;100.00;100538.53;5074074;28;20052;-50
2022/01/03 07:46:56;;;;;;;32.58;4.28;;;;;;;9.73;100.00;100534.84;5074580;28;20088;-51
2022/01/03 07:49:24;;;;;;;30.17;3.60;;;;;;;9.76;100.00;100544.41;5074209;28;20593;-51
2022/01/03 07:51:53;;;;;;;27.25;3.80;;;;;;;9.73;100.00;100528.69;5074258;28;20083;-52
2022/01/03 07:54:21;;;;;;;29.73;3.90;;;;;;;9.77;100.00;100538.19;5074152;28;20052;-52
2022/01/03 07:56:50;;;;;;;28.13;3.83;;;;;;;9.76;100.00;100534.66;5074439;28;20052;-49
2022/01/03 07:59:19;;;;;;;34.95;4.15;;;;;;;9.83;100.00;100525.44;5075213;28;20060;-50
2022/01/03 08:01:47;;;;;;;41.42;3.85;;;;;;;9.80;100.00;100527.38;5074347;28;20142;-51
2022/01/03 08:04:16;;;;;;;28.45;3.55;;;;;;;9.82;100.00;100525.53;5074648;28;20057;-50
2022/01/03 08:06:46;;;;;;;34.22;3.42;;;;;;;9.79;100.00;100531.00;5073755;28;20056;-51
2022/01/03 08:09:14;;;;;;;22.77;2.97;;;;;;;9.87;100.00;100528.75;5075981;28;20056;-49
2022/01/03 08:11:42;;;;;;;29.55;3.20;;;;;;;9.89;100.00;100521.56;5074861;28;20052;-50
2022/01/03 08:14:12;;;;;;;25.27;3.25;;;;;;;9.93;100.00;100524.88;5074113;28;20065;-52
2022/01/03 08:16:40;;;;;;;27.42;3.20;;;;;;;9.95;100.00;100523.88;5074321;28;20057;-51
2022/01/03 08:19:08;;;;;;;31.38;3.50;;;;;;;9.97;100.00;100519.31;5074273;28;20385;-51
2022/01/03 08:21:37;;;;;;;39.97;7.32;;;;;;;9.98;100.00;100510.41;5074684;28;20143;-50
2022/01/03 08:24:06;;;;;;;37.90;4.57;;;;;;;10.12;100.00;100532.59;5074485;28;20061;-50
2022/01/03 08:26:35;;;;;;;30.85;4.00;;;;;;;10.11;100.00;100537.03;5078398;28;20083;-49
2022/01/03 08:29:04;;;;;;;33.60;3.75;;;;;;;10.14;100.00;100536.88;5078364;28;20431;-52
2022/01/03 08:31:34;;;;;;;16.85;2.92;;;;;;;10.24;100.00;100539.81;5078278;28;20056;-51
2022/01/03 08:34:02;;;;;;;23.98;3.45;;;;;;;10.20;100.00;100527.69;5079265;28;20453;-51
2022/01/03 08:36:31;;;;;;;34.50;4.55;;;;;;;10.15;100.00;100538.56;5078337;28;20412;-49
2022/01/03 08:38:59;;;;;;;26.08;3.63;;;;;;;10.20;100.00;100546.25;5077769;28;20066;-51
2022/01/03 08:41:27;;;;;;;30.55;2.92;;;;;;;10.23;100.00;100523.03;5078471;28;20056;-52
2022/01/03 08:43:56;;;;;;;28.52;3.47;;;;;;;10.24;100.00;100518.63;5078951;28;20053;-51
2022/01/03 08:46:24;;;;;;;24.70;3.22;;;;;;;10.27;100.00;100513.13;5078567;28;20053;-52
2022/01/03 08:48:55;;;;;;;22.85;3.33;;;;;;;10.32;100.00;100518.16;5078785;28;20135;-51
2022/01/03 08:51:25;;;;;;;34.97;4.15;;;;;;;10.36;100.00;100506.44;5077353;28;20424;-50
2022/01/03 08:53:53;;;;;;;25.00;2.85;;;;;;;10.39;100.00;100504.44;5078166;28;20062;-52
2022/01/03 08:56:22;;;;;;;22.98;3.53;;;;;;;10.43;100.00;100509.56;5078544;28;20054;-51
2022/01/03 08:58:50;;;;;;;21.83;4.20;;;;;;;10.49;100.00;100520.66;5077468;28;20445;-52
2022/01/03 09:01:18;;;;;;;15.88;2.55;;;;;;;10.59;100.00;100516.47;5078535;28;20053;-51
2022/01/03 09:03:50;;;;;;;16.42;2.80;;;;;;;10.62;100.00;100510.13;5077213;28;20053;-49
2022/01/03 09:06:20;;;;;;;27.42;2.88;;;;;;;10.67;100.00;100505.38;5077323;28;20144;-52
2022/01/03 09:08:49;;;;;;;19.75;2.55;;;;;;;10.81;100.00;100511.63;5077780;28;20079;-51
2022/01/03 09:11:18;;;;;;;18.95;3.60;;;;;;;10.87;100.00;100506.78;5077147;28;20056;-50
2022/01/03 09:13:46;;;;;;;19.83;2.45;;;;;;;10.95;100.00;100503.66;5076921;28;20056;-50
2022/01/03 09:16:14;;;;;;;17.35;3.20;;;;;;;11.10;99.24;100501.81;5077564;28;20064;-50
2022/01/03 09:18:43;;;;;;;18.08;2.60;;;;;;;11.20;98.49;100533.94;5076977;28;20504;-52
2022/01/03 09:21:12;;;;;;;26.15;3.35;;;;;;;11.26;98.36;100514.94;5077343;28;20052;-50
2022/01/03 09:23:47;;;;;;;14.75;2.10;;;;;;;11.28;98.62;100507.72;5078050;28;20052;-50
2022/01/03 09:29:00;;;;;;;16.30;2.20;;;;;;;11.31;98.37;100510.19;5077117;28;20053;-51
2022/01/03 09:31:30;;;;;;;17.65;2.22;;;;;;;11.29;98.37;100506.78;5076795;28;20508;-49
2022/01/03 09:34:00;;;;;;;20.40;2.65;;;;;;;11.31;99.32;100518.16;5077472;28;20486;-50
2022/01/03 09:36:30;;;;;;;20.67;2.20;;;;;;;11.43;98.34;100512.06;5076332;28;20062;-51
2022/01/03 09:39:01;;;;;;;22.95;3.05;;;;;;;11.44;98.01;100496.97;5077036;28;20064;-52
2022/01/03 09:41:29;;;;;;;16.83;2.55;;;;;;;11.57;97.74;100495.19;5076760;28;20053;-50
2022/01/03 09:44:01;;;;;;;15.00;2.20;;;;;;;11.65;97.33;100484.03;5077139;28;20057;-49
2022/01/03 09:46:33;;;;;;;;;;;;;;;11.85;96.03;100480.91;5077625;28;20053;-52
2022/01/03 09:49:01;;;;;;;21.20;2.17;;;;;;;12.13;93.60;100489.69;5076873;28;19920;-51
2022/01/03 09:51:31;;;;;;;15.35;2.50;;;;;;;12.09;94.13;100485.53;5076284;28;20504;-52
2022/01/03 09:54:03;;;;;;;22.20;3.55;;;;;;;12.13;93.57;100489.69;5076174;28;20512;-50
2022/01/03 09:56:33;;;;;;;18.38;2.60;;;;;;;12.23;93.07;100482.75;5076477;28;20067;-49
2022/01/03 09:59:02;;;;;;;17.20;2.75;;;;;;;12.17;93.33;100482.34;5077148;28;20056;-52
2022/01/03 10:01:31;;;;;;;15.27;1.98;;;;;;;12.15;93.44;100468.31;5076260;28;20056;-49
2022/01/03 10:04:00;;;;;;;23.95;2.85;;;;;;;12.13;93.87;100473.72;5077423;28;20110;-50
2022/01/03 10:06:29;;;;;;;23.83;3.72;;;;;;;12.05;93.99;100465.41;5076691;28;20524;-49
2022/01/03 10:08:59;;;;;;;18.40;2.55;;;;;;;12.00;94.85;100456.91;5076391;28;20071;-49
2022/01/03 10:11:28;;;;;;;21.60;2.60;;;;;;;11.94;95.91;100457.34;5076381;28;20083;-51
2022/01/03 10:13:56;;;;;;;18.65;2.28;;;;;;;11.99;95.79;100452.56;5077249;28;20056;-52
2022/01/03 10:16:25;;;;;;;16.73;2.10;;;;;;;11.98;95.76;100464.16;5076278;28;20057;-51
2022/01/03 10:19:11;;;;;;;20.02;2.55;;;;;;;11.88;96.40;100440.84;5076594;28;20056;-51
2022/01/03 10:21:41;;;;;;;16.98;2.47;;;;;;;11.90;96.87;100438.91;5075863;28;20056;-50
2022/01/03 10:24:11;;;;;;;15.88;2.17;;;;;;;11.88;97.39;100453.25;5075894;28;20057;-50
2022/01/03 10:26:42;;;;;;;20.70;3.25;;;;;;;11.82;97.28;100438.59;5076098;28;20059;-51
2022/01/03 10:29:15;;;;;;;22.58;2.25;;;;;;;11.75;98.14;100447.06;5076338;28;20427;-50
2022/01/03 10:31:45;;;;;;;21.45;2.97;;;;;;;11.61;99.50;100445.34;5076474;28;20052;-51
2022/01/03 10:34:14;;;;;;;18.40;2.55;;;;;;;11.58;99.76;100441.09;5075716;28;20056;-51
2022/01/03 10:36:45;;;;;;;13.25;2.42;;;;;;;11.56;100.00;100426.22;5075563;28;20067;-49
2022/01/03 10:39:15;;;;;;;12.10;2.22;;;;;;;11.48;100.00;100416.97;5076097;28;20056;-50
2022/01/03 10:41:47;;;;;;;11.38;2.30;;;;;;;11.55;100.00;100424.50;5075236;28;20068;-49
2022/01/03 10:44:30;;;;;;;14.15;2.38;;;;;;;11.45;100.00;100425.16;5075443;28;20065;-49
2022/01/03 10:46:59;;;;;;;11.98;2.58;;;;;;;11.44;100.00;100417.28;5075978;28;20053;-50
2022/01/03 10:49:28;;;;;;;23.23;2.42;;;;;;;11.38;100.00;100407.06;5074880;28;20530;-49
2022/01/03 10:52:22;;;;;;;15.30;2.22;;;;;;;11.27;100.00;100397.16;5075591;28;20075;-50
2022/01/03 10:55:09;;;;;;;10.95;1.65;;;;;;;11.18;100.00;100397.75;5075178;28;20058;-52
2022/01/03 10:57:53;;;;;;;13.85;2.17;;;;;;;11.09;100.00;100391.25;5075640;28;20086;-50
2022/01/03 11:00:25;;;;;;;11.90;2.28;;;;;;;11.02;100.00;100377.53;5075920;28;20060;-52
2022/01/03 11:03:14;;;;;;;11.95;2.13;;;;;;;10.97;100.00;100375.19;5074841;28;20063;-49
2022/01/03 11:05:48;;;;;;;15.48;2.25;;;;;;;10.97;100.00;100382.31;5075017;28;20052;-49
2022/01/03 11:11:07;;;;;;;11.07;1.77;;;;;;;10.97;100.00;100374.34;5074692;28;20064;-50
2022/01/03 11:13:40;;;;;;;8.30;2.17;;;;;;;10.93;100.00;100362.25;5074842;28;20052;-50
2022/01/03 11:16:09;;;;;;;11.25;1.60;;;;;;;10.91;100.00;100374.75;5075425;28;20408;-50
2022/01/03 11:18:39;;;;;;;14.35;2.10;;;;;;;10.87;100.00;100363.47;5075795;28;20075;-52
2022/01/03 11:21:11;;;;;;;15.55;3.30;;;;;;;10.89;100.00;100353.63;5075156;28;20064;-51
2022/01/03 11:23:41;;;;;;;18.08;2.10;;;;;;;10.93;100.00;100360.44;5075841;28;20060;-50
2022/01/03 11:26:10;;;;;;;11.52;1.75;;;;;;;10.99;100.00;100353.84;5074594;28;20052;-51
2022/01/03 11:28:41;;;;;;;10.25;1.83;;;;;;;11.01;100.00;100356.41;5074595;28;20504;-49
2022/01/03 11:31:09;;;;;;;10.73;1.98;;;;;;;11.03;100.00;100349.19;5074671;28;20419;-50
2022/01/03 11:33:39;;;;;;;10.45;1.80;;;;;;;11.08;100.00;100347.13;5074293;28;20056;-51
2022/01/03 11:36:28;;;;;;;5.90;1.13;;;;;;;11.03;100.00;100339.44;5074804;28;20044;-49
2022/01/03 11:38:57;;;;;;;13.30;1.95;;;;;;;11.05;100.00;100329.56;5074651;28;20053;-49